createdAt,value
2018-08-25T00:01:08.763Z,9.47
2018-08-25T00:03:37.006Z,8.23
2018-08-25T00:06:05.584Z,8.50
2018-08-25T00:08:33.782Z,8.77
2018-08-25T00:11:02.103Z,8.73
2018-08-25T00:13:30.770Z,8.43
2018-08-25T00:16:00.591Z,8.60
2018-08-25T00:18:29.044Z,9.20
2018-08-25T00:20:59.087Z,9.60
2018-08-25T00:23:27.623Z,8.60
2018-08-25T00:25:57.797Z,8.67
2018-08-25T00:28:26.351Z,8.73
2018-08-25T00:31:00.394Z,8.40
2018-08-25T00:33:29.182Z,8.00
2018-08-25T00:35:59.306Z,8.70
2018-08-25T00:38:27.976Z,9.13
2018-08-25T00:40:56.395Z,8.90
2018-08-25T00:43:24.732Z,9.47
2018-08-25T00:45:53.023Z,9.20
2018-08-25T00:48:21.500Z,9.27
2018-08-25T00:50:50.297Z,9.03
2018-08-25T00:53:18.582Z,8.77
2018-08-25T00:55:47.367Z,9.00
2018-08-25T00:58:15.608Z,9.30
2018-08-25T01:00:44.038Z,9.10
2018-08-25T01:03:12.598Z,9.40
2018-08-25T01:05:41.246Z,9.10
2018-08-25T01:08:09.695Z,9.37
2018-08-25T01:10:38.694Z,9.70
2018-08-25T01:13:07.862Z,9.37
2018-08-25T01:15:36.128Z,9.70
2018-08-25T01:18:04.629Z,10.30
2018-08-25T01:20:33.226Z,9.67
2018-08-25T01:23:01.653Z,10.00
2018-08-25T01:25:30.111Z,8.87
2018-08-25T01:27:58.522Z,10.03
2018-08-25T01:30:27.393Z,9.30
2018-08-25T01:32:55.981Z,9.93
2018-08-25T01:35:24.732Z,9.73
2018-08-25T01:37:53.059Z,9.80
2018-08-25T01:40:21.370Z,9.53
2018-08-25T01:42:49.970Z,9.93
2018-08-25T01:45:18.399Z,9.27
2018-08-25T01:47:46.835Z,9.47
2018-08-25T01:50:15.265Z,12.23
2018-08-25T01:52:44.066Z,9.90
2018-08-25T01:55:12.847Z,10.63
2018-08-25T01:57:41.265Z,9.83
2018-08-25T02:00:10.085Z,11.27
2018-08-25T02:02:38.416Z,10.30
2018-08-25T02:05:06.885Z,10.83
2018-08-25T02:07:35.371Z,12.03
2018-08-25T02:10:04.260Z,11.03
2018-08-25T02:12:32.823Z,10.20
2018-08-25T02:15:01.520Z,10.70
2018-08-25T02:17:29.794Z,10.83
2018-08-25T02:19:58.011Z,10.77
2018-08-25T02:22:26.564Z,11.13
2018-08-25T02:24:55.094Z,11.13
2018-08-25T02:27:23.824Z,10.97
2018-08-25T02:29:52.657Z,11.33
2018-08-25T02:32:21.279Z,11.00
2018-08-25T02:34:49.759Z,10.40
2018-08-25T02:37:18.467Z,10.37
2018-08-25T02:39:47.307Z,10.37
2018-08-25T02:42:16.158Z,10.63
2018-08-25T02:44:44.830Z,10.60
2018-08-25T02:47:13.560Z,10.43
2018-08-25T02:49:42.329Z,11.47
2018-08-25T02:52:11.008Z,10.27
2018-08-25T02:54:39.809Z,11.00
2018-08-25T02:57:08.155Z,11.60
2018-08-25T02:59:36.774Z,11.33
2018-08-25T03:02:05.660Z,10.93
2018-08-25T03:04:34.207Z,11.57
2018-08-25T03:07:02.608Z,11.17
2018-08-25T03:09:31.025Z,11.37
2018-08-25T03:11:59.480Z,11.47
2018-08-25T03:14:28.385Z,11.80
2018-08-25T03:16:56.651Z,11.03
2018-08-25T03:19:24.989Z,11.13
2018-08-25T03:21:53.643Z,11.77
2018-08-25T03:24:22.223Z,12.00
2018-08-25T03:26:50.909Z,12.43
2018-08-25T03:29:19.111Z,12.40
2018-08-25T03:31:47.523Z,11.80
2018-08-25T03:34:16.250Z,12.10
2018-08-25T03:36:44.700Z,11.67
2018-08-25T03:39:13.095Z,12.73
2018-08-25T03:41:41.339Z,12.30
2018-08-25T03:44:13.721Z,11.63
2018-08-25T03:46:42.456Z,12.33
2018-08-25T03:49:11.075Z,11.90
2018-08-25T03:51:39.315Z,11.53
2018-08-25T03:54:08.104Z,11.60
2018-08-25T03:56:36.701Z,12.00
2018-08-25T03:59:05.068Z,12.03
2018-08-25T04:01:33.493Z,11.40
2018-08-25T04:04:02.151Z,11.43
2018-08-25T04:06:30.883Z,10.93
2018-08-25T04:08:59.280Z,11.57
2018-08-25T04:11:32.729Z,11.17
2018-08-25T04:14:01.444Z,11.73
2018-08-25T04:16:30.084Z,12.10
2018-08-25T04:18:58.643Z,12.50
2018-08-25T04:21:27.266Z,12.40
2018-08-25T04:23:55.891Z,11.50
2018-08-25T04:26:24.657Z,11.87
2018-08-25T04:28:53.367Z,11.23
2018-08-25T04:31:21.803Z,12.63
2018-08-25T04:33:50.607Z,11.93
2018-08-25T04:36:18.926Z,11.60
2018-08-25T04:38:47.678Z,12.77
2018-08-25T04:41:15.965Z,11.33
2018-08-25T04:43:44.243Z,11.67
2018-08-25T04:46:12.635Z,12.13
2018-08-25T04:48:41.030Z,11.37
2018-08-25T04:51:09.470Z,11.83
2018-08-25T04:53:38.598Z,11.40
2018-08-25T04:56:06.919Z,11.07
2018-08-25T04:58:35.378Z,11.13
2018-08-25T05:01:04.071Z,11.00
2018-08-25T05:03:32.451Z,11.07
2018-08-25T05:06:01.478Z,11.60
2018-08-25T05:08:30.187Z,11.37
2018-08-25T05:10:59.941Z,11.07
2018-08-25T05:13:28.448Z,10.43
2018-08-25T05:15:57.113Z,11.40
2018-08-25T05:18:25.544Z,11.43
2018-08-25T05:20:53.886Z,11.20
2018-08-25T05:23:22.362Z,10.70
2018-08-25T05:25:50.842Z,11.20
2018-08-25T05:28:19.399Z,10.50
2018-08-25T05:30:48.179Z,11.10
2018-08-25T05:33:16.518Z,10.47
2018-08-25T05:35:44.931Z,11.07
2018-08-25T05:38:13.157Z,11.23
2018-08-25T05:40:41.626Z,11.20
2018-08-25T05:43:10.188Z,10.83
2018-08-25T05:45:38.563Z,11.27
2018-08-25T05:48:07.195Z,11.83
2018-08-25T05:50:35.747Z,11.30
2018-08-25T05:53:04.178Z,10.87
2018-08-25T05:55:32.974Z,10.87
2018-08-25T05:58:01.652Z,11.60
2018-08-25T06:00:39.159Z,12.63
2018-08-25T06:03:07.504Z,10.90
2018-08-25T06:05:36.468Z,11.73
2018-08-25T06:08:04.878Z,12.20
2018-08-25T06:10:33.405Z,12.20
2018-08-25T06:13:01.765Z,12.07
2018-08-25T06:15:30.224Z,12.57
2018-08-25T06:17:58.560Z,14.87
2018-08-25T06:20:27.094Z,13.90
2018-08-25T06:22:55.672Z,14.53
2018-08-25T06:25:24.132Z,14.33
2018-08-25T06:27:52.742Z,15.73
2018-08-25T06:30:21.386Z,15.37
2018-08-25T06:32:49.767Z,15.80
2018-08-25T06:35:18.112Z,15.50
2018-08-25T06:37:46.666Z,15.10
2018-08-25T06:40:15.143Z,14.73
2018-08-25T06:42:43.532Z,16.00
2018-08-25T06:45:12.220Z,16.90
2018-08-25T06:47:40.530Z,15.90
2018-08-25T06:50:08.854Z,15.13
2018-08-25T06:52:37.215Z,14.60
2018-08-25T06:55:06.086Z,14.93
2018-08-25T06:57:35.896Z,14.23
2018-08-25T07:00:04.803Z,19.73
2018-08-25T07:02:33.449Z,71.57
2018-08-25T07:05:01.897Z,78.43
2018-08-25T07:07:30.275Z,74.03
2018-08-25T07:09:58.911Z,56.43
2018-08-25T07:12:27.543Z,43.60
2018-08-25T07:15:09.607Z,35.20
2018-08-25T07:17:37.930Z,33.10
2018-08-25T07:20:06.338Z,35.87
2018-08-25T07:22:34.634Z,60.23
2018-08-25T07:25:03.518Z,60.90
2018-08-25T07:27:32.318Z,57.43
2018-08-25T07:30:01.054Z,51.03
2018-08-25T07:32:29.551Z,44.73
2018-08-25T07:34:57.879Z,42.33
2018-08-25T07:37:26.149Z,36.30
2018-08-25T07:39:54.422Z,33.40
2018-08-25T07:42:22.834Z,30.93
2018-08-25T07:44:51.239Z,26.97
2018-08-25T07:47:19.564Z,32.07
2018-08-25T07:49:47.989Z,30.27
2018-08-25T07:52:16.254Z,36.87
2018-08-25T07:54:44.907Z,39.50
2018-08-25T07:57:13.813Z,39.40
2018-08-25T07:59:42.280Z,36.63
2018-08-25T08:02:11.063Z,33.07
2018-08-25T08:04:39.450Z,26.50
2018-08-25T08:07:07.896Z,24.37
2018-08-25T08:09:36.313Z,56.23
2018-08-25T08:12:05.156Z,74.90
2018-08-25T08:14:58.329Z,60.47
2018-08-25T08:17:26.802Z,32.90
2018-08-25T08:19:55.557Z,36.40
2018-08-25T08:22:24.232Z,27.57
2018-08-25T08:24:52.740Z,23.63
2018-08-25T08:27:21.163Z,17.90
2018-08-25T08:29:49.554Z,14.77
2018-08-25T08:32:17.900Z,13.20
2018-08-25T08:34:46.654Z,12.20
2018-08-25T08:37:15.088Z,12.00
2018-08-25T08:39:43.715Z,12.93
2018-08-25T08:42:12.529Z,10.60
2018-08-25T08:44:41.096Z,10.77
2018-08-25T08:47:09.564Z,9.30
2018-08-25T08:49:46.594Z,9.77
2018-08-25T08:52:06.519Z,12.27
2018-08-25T08:54:35.231Z,10.40
2018-08-25T08:57:04.043Z,12.07
2018-08-25T08:59:32.652Z,12.97
2018-08-25T09:02:01.502Z,10.27
2018-08-25T09:04:30.211Z,12.70
2018-08-25T09:06:58.712Z,10.70
2018-08-25T09:09:26.942Z,9.83
2018-08-25T09:11:55.400Z,10.03
2018-08-25T09:14:42.690Z,11.27
2018-08-25T09:17:11.059Z,10.30
2018-08-25T09:19:39.780Z,13.70
2018-08-25T09:22:08.440Z,11.70
2018-08-25T09:24:37.071Z,9.40
2018-08-25T09:27:05.886Z,10.47
2018-08-25T09:29:34.438Z,11.07
2018-08-25T09:32:03.183Z,11.67
2018-08-25T09:34:31.698Z,11.30
2018-08-25T09:37:00.328Z,11.12
2018-08-25T09:39:28.446Z,9.27
2018-08-25T09:41:56.888Z,11.87
2018-08-25T09:44:25.341Z,9.17
2018-08-25T09:46:54.141Z,10.68
2018-08-25T09:49:22.375Z,12.35
2018-08-25T09:51:51.047Z,10.23
2018-08-25T09:54:19.828Z,10.38
2018-08-25T09:56:48.278Z,12.03
2018-08-25T09:59:16.725Z,10.28
2018-08-25T10:01:50.504Z,9.93
2018-08-25T10:04:19.293Z,11.90
2018-08-25T10:06:47.616Z,10.20
2018-08-25T10:09:16.302Z,10.72
2018-08-25T10:11:45.017Z,9.73
2018-08-25T10:14:13.382Z,9.33
2018-08-25T10:16:42.051Z,9.80
2018-08-25T10:19:10.398Z,8.88
2018-08-25T10:21:38.626Z,9.13
2018-08-25T10:24:07.002Z,9.10
2018-08-25T10:26:35.351Z,10.15
2018-08-25T10:29:03.743Z,10.18
2018-08-25T10:31:32.447Z,10.08
2018-08-25T10:34:00.919Z,8.98
2018-08-25T10:36:29.713Z,9.48
2018-08-25T10:38:58.448Z,11.00
2018-08-25T10:41:27.071Z,10.03
2018-08-25T10:43:55.439Z,11.33
2018-08-25T10:46:23.819Z,16.85
2018-08-25T10:48:52.532Z,10.28
2018-08-25T10:51:20.784Z,10.35
2018-08-25T10:53:49.175Z,10.82
2018-08-25T10:56:17.921Z,11.55
2018-08-25T10:58:46.258Z,9.28
2018-08-25T11:01:14.783Z,10.38
2018-08-25T11:03:43.150Z,10.63
2018-08-25T11:06:11.856Z,12.05
2018-08-25T11:08:40.396Z,9.30
2018-08-25T11:11:08.934Z,9.73
2018-08-25T11:13:37.768Z,8.98
2018-08-25T11:16:06.339Z,12.43
2018-08-25T11:18:34.965Z,11.33
2018-08-25T11:21:03.410Z,9.73
2018-08-25T11:23:31.802Z,11.50
2018-08-25T11:26:01.495Z,10.93
2018-08-25T11:28:29.791Z,10.40
2018-08-25T11:30:59.563Z,10.38
2018-08-25T11:33:28.108Z,10.45
2018-08-25T11:35:56.438Z,13.35
2018-08-25T11:38:25.058Z,10.53
2018-08-25T11:40:53.531Z,9.78
2018-08-25T11:43:22.244Z,9.45
2018-08-25T11:45:50.703Z,9.85
2018-08-25T11:48:19.435Z,9.38
2018-08-25T11:50:47.939Z,8.73
2018-08-25T11:53:16.400Z,9.23
2018-08-25T11:55:44.710Z,9.45
2018-08-25T11:58:13.306Z,8.40
2018-08-25T12:00:42.154Z,8.40
2018-08-25T12:03:10.565Z,8.60
2018-08-25T12:05:39.083Z,9.00
2018-08-25T12:08:07.816Z,8.83
2018-08-25T12:10:37.035Z,9.35
2018-08-25T12:13:05.752Z,8.90
2018-08-25T12:16:11.394Z,10.48
2018-08-25T12:18:40.322Z,8.40
2018-08-25T12:21:09.278Z,7.72
2018-08-25T12:23:37.854Z,7.50
2018-08-25T12:26:06.834Z,9.53
2018-08-25T12:28:35.488Z,10.30
2018-08-25T12:31:04.129Z,8.48
2018-08-25T12:33:33.089Z,7.20
2018-08-25T12:36:02.895Z,8.73
2018-08-25T12:38:32.039Z,8.85
2018-08-25T12:41:01.902Z,7.10
2018-08-25T12:43:30.662Z,8.20
2018-08-25T12:46:00.452Z,8.53
2018-08-25T12:48:29.887Z,7.30
2018-08-25T12:50:59.315Z,7.75
2018-08-25T12:53:28.862Z,7.35
2018-08-25T12:55:57.511Z,9.70
2018-08-25T12:58:26.516Z,6.75
2018-08-25T13:00:56.179Z,6.92
2018-08-25T13:03:25.858Z,9.50
2018-08-25T13:05:54.917Z,8.40
2018-08-25T13:08:23.603Z,7.83
2018-08-25T13:10:52.815Z,9.95
2018-08-25T13:13:22.027Z,8.80
2018-08-25T13:16:26.548Z,10.80
2018-08-25T13:18:56.104Z,8.30
2018-08-25T13:21:24.994Z,11.18
2018-08-25T13:23:53.817Z,8.98
2018-08-25T13:26:23.276Z,8.63
2018-08-25T13:28:52.189Z,10.72
2018-08-25T13:31:21.114Z,9.50
2018-08-25T13:33:50.306Z,8.75
2018-08-25T13:36:19.414Z,9.85
2018-08-25T13:38:49.554Z,9.15
2018-08-25T13:41:19.284Z,8.30
2018-08-25T13:43:48.430Z,11.20
2018-08-25T13:46:17.945Z,9.45
2018-08-25T13:48:47.076Z,9.88
2018-08-25T13:51:16.731Z,10.30
2018-08-25T13:53:46.905Z,7.90
2018-08-25T13:56:16.587Z,7.55
2018-08-25T13:58:46.226Z,11.00
2018-08-25T14:01:15.116Z,8.13
2018-08-25T14:03:44.226Z,8.48
2018-08-25T14:06:13.099Z,10.88
2018-08-25T14:08:42.030Z,11.43
2018-08-25T14:11:11.423Z,10.65
2018-08-25T14:13:40.338Z,9.53
2018-08-25T14:16:42.694Z,9.23
2018-08-25T14:19:11.682Z,8.03
2018-08-25T14:21:41.011Z,8.48
2018-08-25T14:24:11.070Z,10.25
2018-08-25T14:26:40.456Z,9.83
2018-08-25T14:29:09.547Z,8.73
2018-08-25T14:31:38.810Z,10.72
2018-08-25T14:34:07.539Z,9.58
2018-08-25T14:36:37.267Z,9.20
2018-08-25T14:39:08.280Z,11.20
2018-08-25T14:41:38.181Z,10.95
2018-08-25T14:44:08.118Z,15.80
2018-08-25T14:46:38.506Z,12.23
2018-08-25T14:49:07.899Z,12.03
2018-08-25T14:51:37.700Z,13.43
2018-08-25T14:54:06.724Z,10.45
2018-08-25T14:56:36.403Z,13.10
2018-08-25T14:59:05.396Z,10.50
2018-08-25T15:01:34.685Z,13.83
2018-08-25T15:04:03.904Z,10.78
2018-08-25T15:06:33.083Z,11.10
2018-08-25T15:09:02.087Z,11.65
2018-08-25T15:11:34.338Z,11.83
2018-08-25T15:14:03.492Z,10.78
2018-08-25T15:16:51.823Z,11.55
2018-08-25T15:19:20.834Z,16.65
2018-08-25T15:21:50.103Z,12.63
2018-08-25T15:24:19.031Z,11.50
2018-08-25T15:26:48.790Z,13.70
2018-08-25T15:29:17.534Z,11.00
2018-08-25T15:31:46.175Z,9.15
2018-08-25T15:34:14.924Z,11.22
2018-08-25T15:36:43.763Z,8.43
2018-08-25T15:39:14.144Z,9.40
2018-08-25T15:41:43.824Z,9.40
2018-08-25T15:44:12.848Z,10.68
2018-08-25T15:46:41.678Z,10.75
2018-08-25T15:49:10.535Z,10.85
2018-08-25T15:51:39.671Z,9.28
2018-08-25T15:54:09.115Z,10.23
2018-08-25T15:56:39.297Z,12.23
2018-08-25T15:59:09.214Z,10.82
2018-08-25T16:01:39.714Z,12.93
2018-08-25T16:04:09.818Z,10.15
2018-08-25T16:06:39.144Z,11.35
2018-08-25T16:09:10.059Z,10.80
2018-08-25T16:11:40.345Z,12.33
2018-08-25T16:14:09.566Z,10.85
2018-08-25T16:17:04.289Z,12.18
2018-08-25T16:19:33.747Z,9.35
2018-08-25T16:22:03.002Z,11.80
2018-08-25T16:24:33.134Z,11.95
2018-08-25T16:27:03.052Z,9.65
2018-08-25T16:29:33.100Z,12.93
2018-08-25T16:32:03.341Z,10.38
2018-08-25T16:34:32.494Z,10.75
2018-08-25T16:37:01.612Z,11.97
2018-08-25T16:39:30.749Z,12.98
2018-08-25T16:42:00.638Z,13.72
2018-08-25T16:44:30.438Z,12.75
2018-08-25T16:47:00.094Z,12.28
2018-08-25T16:49:30.015Z,16.35
2018-08-25T16:51:59.102Z,13.58
2018-08-25T16:54:28.310Z,11.55
2018-08-25T16:56:58.167Z,11.03
2018-08-25T16:59:28.327Z,15.15
2018-08-25T17:01:57.977Z,16.07
2018-08-25T17:04:27.422Z,10.80
2018-08-25T17:06:56.616Z,13.53
2018-08-25T17:09:26.643Z,9.73
2018-08-25T17:11:56.089Z,10.77
2018-08-25T17:14:31.387Z,11.83
2018-08-25T17:17:20.852Z,13.53
2018-08-25T17:19:49.915Z,9.67
2018-08-25T17:22:19.298Z,11.83
2018-08-25T17:24:48.556Z,13.70
2018-08-25T17:27:17.686Z,13.23
2018-08-25T17:29:47.675Z,13.10
2018-08-25T17:32:17.778Z,11.30
2018-08-25T17:34:48.111Z,28.30
2018-08-25T17:37:17.442Z,71.33
2018-08-25T17:39:46.689Z,22.20
2018-08-25T17:42:16.406Z,11.33
2018-08-25T17:44:46.023Z,18.33
2018-08-25T17:47:15.282Z,20.40
2018-08-25T17:49:45.427Z,14.63
2018-08-25T17:52:15.386Z,13.83
2018-08-25T17:54:45.291Z,17.53
2018-08-25T17:57:15.295Z,30.83
2018-08-25T17:59:44.442Z,35.47
2018-08-25T18:02:14.376Z,16.07
2018-08-25T18:04:44.224Z,15.57
2018-08-25T18:07:13.451Z,15.73
2018-08-25T18:09:42.743Z,14.33
2018-08-25T18:12:12.492Z,16.73
2018-08-25T18:17:46.171Z,15.03
2018-08-25T18:20:15.864Z,16.73
2018-08-25T18:22:45.053Z,13.30
2018-08-25T18:25:15.013Z,14.70
2018-08-25T18:27:44.805Z,16.23
2018-08-25T18:30:13.941Z,23.37
2018-08-25T18:32:43.898Z,17.80
2018-08-25T18:35:13.105Z,21.73
2018-08-25T18:37:42.922Z,18.43
2018-08-25T18:40:12.732Z,22.27
2018-08-25T18:42:42.512Z,17.80
2018-08-25T18:45:11.866Z,19.40
2018-08-25T18:47:41.962Z,17.50
2018-08-25T18:50:12.403Z,19.03
2018-08-25T18:52:42.721Z,16.40
2018-08-25T18:55:12.999Z,18.73
2018-08-25T18:57:42.833Z,17.50
2018-08-25T19:00:12.239Z,14.67
2018-08-25T19:02:41.536Z,17.63
2018-08-25T19:05:11.390Z,14.57
2018-08-25T19:07:40.617Z,17.80
2018-08-25T19:10:10.438Z,23.63
2018-08-25T19:12:39.689Z,16.23
2018-08-25T19:15:54.595Z,18.27
2018-08-25T19:18:24.474Z,14.90
2018-08-25T19:20:55.087Z,17.37
2018-08-25T19:23:24.305Z,25.00
2018-08-25T19:25:54.367Z,17.40
2018-08-25T19:28:23.586Z,16.80
2018-08-25T19:30:52.871Z,17.30
2018-08-25T19:33:22.364Z,13.87
2018-08-25T19:35:51.603Z,16.60
2018-08-25T19:38:20.782Z,19.33
2018-08-25T19:40:50.078Z,21.20
2018-08-25T19:43:19.986Z,15.40
2018-08-25T19:45:49.805Z,10.87
2018-08-25T19:48:19.956Z,14.27
2018-08-25T19:50:49.058Z,18.80
2018-08-25T19:53:19.240Z,14.73
2018-08-25T19:55:49.361Z,16.10
2018-08-25T19:58:19.130Z,15.87
2018-08-25T20:00:49.056Z,12.10
2018-08-25T20:03:18.306Z,13.70
2018-08-25T20:05:47.472Z,16.97
2018-08-25T20:08:16.670Z,13.43
2018-08-25T20:10:46.539Z,11.30
2018-08-25T20:13:16.825Z,10.80
2018-08-25T20:16:36.800Z,15.13
2018-08-25T20:19:06.507Z,13.40
2018-08-25T20:21:36.979Z,11.07
2018-08-25T20:24:06.167Z,11.57
2018-08-25T20:29:56.577Z,11.80
2018-08-25T20:32:26.483Z,12.07
2018-08-25T20:34:55.709Z,12.57
2018-08-25T20:37:24.959Z,12.13
2018-08-25T20:39:54.931Z,14.90
2018-08-25T20:42:24.064Z,10.73
2018-08-25T20:44:53.236Z,12.40
2018-08-25T20:47:22.467Z,14.33
2018-08-25T20:49:51.510Z,13.83
2018-08-25T20:52:21.487Z,10.47
2018-08-25T20:54:50.662Z,13.97
2018-08-25T20:57:20.203Z,13.63
2018-08-25T20:59:49.231Z,14.50
2018-08-25T21:02:19.218Z,14.67
2018-08-25T21:04:48.956Z,14.13
2018-08-25T21:07:18.262Z,14.13
2018-08-25T21:09:46.994Z,16.60
2018-08-25T21:12:16.102Z,14.67
2018-08-25T21:15:07.241Z,16.23
2018-08-25T21:17:42.636Z,13.50
2018-08-25T21:20:11.499Z,12.60
2018-08-25T21:22:40.320Z,12.30
2018-08-25T21:25:08.755Z,14.30
2018-08-25T21:27:37.606Z,14.57
2018-08-25T21:30:08.186Z,17.17
2018-08-25T21:32:37.018Z,16.23
2018-08-25T21:35:06.503Z,13.53
2018-08-25T21:37:35.806Z,14.97
2018-08-25T21:40:04.113Z,15.17
2018-08-25T21:42:32.759Z,14.57
2018-08-25T21:45:01.553Z,12.90
2018-08-25T21:47:30.162Z,13.20
2018-08-25T21:49:58.548Z,17.90
2018-08-25T21:52:27.236Z,14.00
2018-08-25T21:54:55.692Z,12.37
2018-08-25T21:57:24.366Z,12.67
2018-08-25T21:59:52.795Z,14.70
2018-08-25T22:02:21.190Z,12.20
2018-08-25T22:04:49.811Z,12.57
2018-08-25T22:07:18.192Z,13.03
2018-08-25T22:09:46.792Z,17.67
2018-08-25T22:12:15.218Z,14.83
2018-08-25T22:14:43.671Z,13.60
2018-08-25T22:17:11.993Z,11.77
2018-08-25T22:19:40.722Z,14.07
2018-08-25T22:22:09.424Z,10.97
2018-08-25T22:24:37.811Z,13.07
2018-08-25T22:27:06.191Z,14.03
2018-08-25T22:29:34.567Z,14.13
2018-08-25T22:32:03.257Z,14.40
2018-08-25T22:34:32.076Z,15.80
2018-08-25T22:37:00.727Z,19.63
2018-08-25T22:39:29.456Z,16.83
2018-08-25T22:41:57.798Z,14.67
2018-08-25T22:44:26.489Z,13.97
2018-08-25T22:46:54.851Z,16.43
2018-08-25T22:49:23.176Z,17.47
2018-08-25T22:51:51.831Z,15.90
2018-08-25T22:54:20.298Z,14.33
2018-08-25T22:56:49.066Z,14.13
2018-08-25T22:59:17.423Z,14.23
2018-08-25T23:01:45.859Z,16.53
2018-08-25T23:04:14.223Z,14.03
2018-08-25T23:06:42.822Z,15.03
2018-08-25T23:09:11.442Z,14.93
2018-08-25T23:11:40.112Z,16.63
2018-08-25T23:14:08.752Z,19.10
2018-08-25T23:16:37.372Z,18.20
2018-08-25T23:19:06.293Z,15.00
2018-08-25T23:21:34.652Z,16.97
2018-08-25T23:24:02.935Z,13.70
2018-08-25T23:26:31.540Z,16.37
2018-08-25T23:29:00.205Z,14.33
2018-08-25T23:31:28.831Z,14.97
2018-08-25T23:33:57.398Z,16.10
2018-08-25T23:36:25.733Z,15.10
2018-08-25T23:38:54.044Z,13.43
2018-08-25T23:41:22.787Z,19.47
2018-08-25T23:43:51.198Z,15.33
2018-08-25T23:46:19.918Z,14.47
2018-08-25T23:48:48.535Z,19.17
2018-08-25T23:51:16.914Z,12.67
2018-08-25T23:53:45.338Z,12.53
2018-08-25T23:56:13.687Z,15.23
2018-08-25T23:58:41.926Z,13.90
